createdAt,value
2016-05-15T00:00:48.968Z,0
2016-05-15T00:01:48.924Z,0
2016-05-15T00:02:48.613Z,0
2016-05-15T00:03:48.930Z,0
2016-05-15T00:04:48.886Z,0
2016-05-15T00:05:48.857Z,0
2016-05-15T00:06:48.829Z,0
2016-05-15T00:07:48.815Z,0
2016-05-15T00:08:48.817Z,0
2016-05-15T00:09:48.804Z,0
2016-05-15T00:10:48.777Z,0
2016-05-15T00:11:48.748Z,0
2016-05-15T00:12:48.735Z,0
2016-05-15T00:13:48.706Z,0
2016-05-15T00:14:48.693Z,0
2016-05-15T00:15:48.665Z,0
2016-05-15T00:16:48.667Z,0
2016-05-15T00:17:48.639Z,0
2016-05-15T00:18:48.642Z,0
2016-05-15T00:19:48.300Z,0
2016-05-15T00:20:48.428Z,0
2016-05-15T00:21:48.572Z,0
2016-05-15T00:22:48.246Z,0
2016-05-15T00:23:48.546Z,0
2016-05-15T00:24:48.377Z,0
2016-05-15T00:25:48.348Z,0
2016-05-15T00:26:48.319Z,0
2016-05-15T00:27:48.447Z,0
2016-05-15T00:28:48.449Z,0
2016-05-15T00:29:48.436Z,0
2016-05-15T00:30:48.236Z,0
2016-05-15T00:31:48.396Z,0
2016-05-15T00:32:48.367Z,0
2016-05-15T00:33:48.385Z,0
2016-05-15T00:34:48.310Z,0
2016-05-15T00:35:47.999Z,0
2016-05-15T00:36:48.143Z,0
2016-05-15T00:37:48.146Z,0
2016-05-15T00:38:48.257Z,0
2016-05-15T00:39:48.260Z,0
2016-05-15T00:40:48.232Z,0
2016-05-15T00:41:48.062Z,0
2016-05-15T00:42:48.190Z,0
2016-05-15T00:43:48.193Z,0
2016-05-15T00:44:48.149Z,0
2016-05-15T00:45:48.136Z,0
2016-05-15T00:46:48.123Z,0
2016-05-15T00:47:48.095Z,0
2016-05-15T00:48:48.097Z,0
2016-05-15T00:49:48.054Z,0
2016-05-15T00:50:48.040Z,0
2016-05-15T00:51:48.028Z,0
2016-05-15T00:52:48.014Z,0
2016-05-15T00:53:47.814Z,0
2016-05-15T00:54:47.988Z,0
2016-05-15T00:55:47.944Z,0
2016-05-15T00:56:47.916Z,0
2016-05-15T00:57:47.919Z,0
2016-05-15T00:58:47.905Z,0
2016-05-15T00:59:47.580Z,0
2016-05-15T01:00:47.708Z,0
2016-05-15T01:01:47.679Z,0
2016-05-15T01:02:47.822Z,0
2016-05-15T01:03:50.075Z,0
2016-05-15T01:04:47.813Z,0
2016-05-15T01:05:47.768Z,0
2016-05-15T01:06:47.615Z,0
2016-05-15T01:07:47.743Z,0
2016-05-15T01:08:47.557Z,0
2016-05-15T01:09:47.701Z,0
2016-05-15T01:10:47.688Z,0
2016-05-15T01:11:47.660Z,0
2016-05-15T01:12:47.334Z,0
2016-05-15T01:13:47.477Z,0
2016-05-15T01:14:47.464Z,0
2016-05-15T01:15:47.451Z,0
2016-05-15T01:16:47.563Z,0
2016-05-15T01:17:47.394Z,0
2016-05-15T01:18:47.943Z,0
2016-05-15T01:19:47.368Z,0
2016-05-15T01:20:47.198Z,0
2016-05-15T01:21:47.484Z,0
2016-05-15T01:22:47.470Z,0
2016-05-15T01:23:47.457Z,0
2016-05-15T01:24:47.428Z,0
2016-05-15T01:25:47.416Z,0
2016-05-15T01:26:47.387Z,0
2016-05-15T01:27:47.374Z,0
2016-05-15T01:28:47.345Z,0
2016-05-15T01:29:47.177Z,0
2016-05-15T01:30:46.850Z,0
2016-05-15T01:31:47.150Z,0
2016-05-15T01:32:47.278Z,0
2016-05-15T01:33:46.984Z,0
2016-05-15T01:34:47.236Z,0
2016-05-15T01:35:47.224Z,0
2016-05-15T01:36:47.227Z,0
2016-05-15T01:37:46.869Z,0
2016-05-15T01:38:47.185Z,0
2016-05-15T01:39:47.016Z,0
2016-05-15T01:40:47.127Z,0
2016-05-15T01:41:46.959Z,0
2016-05-15T01:42:47.101Z,0
2016-05-15T01:43:47.073Z,0
2016-05-15T01:44:46.920Z,0
2016-05-15T01:45:47.031Z,0
2016-05-15T01:46:47.018Z,0
2016-05-15T01:47:46.709Z,0
2016-05-15T01:48:46.884Z,0
2016-05-15T01:49:46.965Z,0
2016-05-15T01:50:46.951Z,0
2016-05-15T01:51:46.939Z,0
2016-05-15T01:52:46.769Z,0
2016-05-15T01:53:46.742Z,0
2016-05-15T01:54:46.853Z,0
2016-05-15T01:55:46.856Z,0
2016-05-15T01:56:46.827Z,0
2016-05-15T01:57:46.673Z,0
2016-05-15T01:58:46.817Z,0
2016-05-15T01:59:46.819Z,0
2016-05-15T02:00:46.760Z,0
2016-05-15T02:01:46.450Z,0
2016-05-15T02:02:46.734Z,0
2016-05-15T02:03:47.174Z,0
2016-05-15T02:04:46.677Z,0
2016-05-15T02:05:46.663Z,0
2016-05-15T02:06:46.510Z,0
2016-05-15T02:07:46.638Z,0
2016-05-15T02:08:46.624Z,0
2016-05-15T02:09:46.597Z,0
2016-05-15T02:10:46.443Z,0
2016-05-15T02:11:46.571Z,0
2016-05-15T02:12:46.557Z,0
2016-05-15T02:13:46.546Z,0
2016-05-15T02:14:46.516Z,0
2016-05-15T02:15:46.503Z,0
2016-05-15T02:16:46.491Z,0
2016-05-15T02:17:46.446Z,0
2016-05-15T02:18:46.323Z,0
2016-05-15T02:19:46.421Z,0
2016-05-15T02:20:46.439Z,0
2016-05-15T02:21:46.410Z,0
2016-05-15T02:22:46.365Z,0
2016-05-15T02:23:46.337Z,0
2016-05-15T02:24:46.325Z,0
2016-05-15T02:25:46.311Z,0
2016-05-15T02:26:46.283Z,0
2016-05-15T02:27:46.114Z,0
2016-05-15T02:28:46.273Z,0
2016-05-15T02:29:46.072Z,0
2016-05-15T02:30:46.059Z,0
2016-05-15T02:31:46.218Z,0
2016-05-15T02:32:46.190Z,0
2016-05-15T02:33:46.349Z,0
2016-05-15T02:34:46.132Z,0
2016-05-15T02:35:46.135Z,0
2016-05-15T02:36:46.122Z,0
2016-05-15T02:37:46.094Z,0
2016-05-15T02:38:45.908Z,0
2016-05-15T02:39:45.896Z,0
2016-05-15T02:40:46.039Z,0
2016-05-15T02:41:46.010Z,0
2016-05-15T02:42:45.826Z,0
2016-05-15T02:43:45.985Z,0
2016-05-15T02:44:45.800Z,0
2016-05-15T02:45:45.943Z,0
2016-05-15T02:46:45.915Z,0
2016-05-15T02:47:45.917Z,0
2016-05-15T02:48:45.748Z,0
2016-05-15T02:49:45.876Z,0
2016-05-15T02:50:45.878Z,0
2016-05-15T02:51:45.679Z,0
2016-05-15T02:52:45.821Z,0
2016-05-15T02:53:45.792Z,0
2016-05-15T02:54:45.780Z,0
2016-05-15T02:55:45.783Z,0
2016-05-15T02:56:45.739Z,0
2016-05-15T02:57:45.725Z,0
2016-05-15T02:58:45.698Z,0
2016-05-15T02:59:45.528Z,0
2016-05-15T03:00:45.514Z,0
2016-05-15T03:01:45.658Z,0
2016-05-15T03:02:45.661Z,0
2016-05-15T03:03:46.522Z,0
2016-05-15T03:04:45.447Z,0
2016-05-15T03:05:45.575Z,0
2016-05-15T03:06:45.406Z,0
2016-05-15T03:07:45.533Z,0
2016-05-15T03:08:45.521Z,0
2016-05-15T03:09:45.336Z,0
2016-05-15T03:10:45.494Z,0
2016-05-15T03:11:45.310Z,0
2016-05-15T03:12:45.454Z,0
2016-05-15T03:13:45.441Z,0
2016-05-15T03:14:45.412Z,0
2016-05-15T03:15:45.399Z,0
2016-05-15T03:16:45.386Z,0
2016-05-15T03:17:45.060Z,0
2016-05-15T03:18:45.563Z,0
2016-05-15T03:19:45.175Z,0
2016-05-15T03:20:45.304Z,0
2016-05-15T03:21:45.290Z,0
2016-05-15T03:22:45.167Z,0
2016-05-15T03:23:45.109Z,0
2016-05-15T03:24:45.220Z,0
2016-05-15T03:25:45.206Z,0
2016-05-15T03:26:45.179Z,0
2016-05-15T03:27:45.165Z,0
2016-05-15T03:28:45.153Z,0
2016-05-15T03:29:44.983Z,0
2016-05-15T03:30:45.127Z,0
2016-05-15T03:31:45.098Z,0
2016-05-15T03:32:45.085Z,0
2016-05-15T03:33:45.494Z,0
2016-05-15T03:34:45.231Z,0
2016-05-15T03:35:45.031Z,0
2016-05-15T03:36:45.018Z,0
2016-05-15T03:37:44.989Z,0
2016-05-15T03:38:44.977Z,0
2016-05-15T03:39:44.791Z,0
2016-05-15T03:40:44.779Z,0
2016-05-15T03:41:44.907Z,0
2016-05-15T03:42:44.753Z,0
2016-05-15T03:43:44.880Z,0
2016-05-15T03:44:44.867Z,0
2016-05-15T03:45:44.683Z,0
2016-05-15T03:46:44.670Z,0
2016-05-15T03:47:44.812Z,0
2016-05-15T03:48:45.144Z,0
2016-05-15T03:49:45.007Z,0
2016-05-15T03:50:44.743Z,0
2016-05-15T03:51:44.433Z,0
2016-05-15T03:52:44.718Z,0
2016-05-15T03:53:44.704Z,0
2016-05-15T03:54:44.722Z,0
2016-05-15T03:55:44.507Z,0
2016-05-15T03:56:44.650Z,0
2016-05-15T03:57:44.621Z,0
2016-05-15T03:58:44.608Z,0
2016-05-15T03:59:44.595Z,0
2016-05-15T04:00:44.411Z,0
2016-05-15T04:01:44.553Z,0
2016-05-15T04:02:44.525Z,0
2016-05-15T04:03:45.278Z,0
2016-05-15T04:04:44.828Z,0
2016-05-15T04:05:44.486Z,0
2016-05-15T04:06:44.145Z,0
2016-05-15T04:07:44.289Z,0
2016-05-15T04:08:44.291Z,0
2016-05-15T04:09:44.263Z,0
2016-05-15T04:10:44.375Z,0
2016-05-15T04:11:44.363Z,0
2016-05-15T04:12:44.349Z,0
2016-05-15T04:13:44.179Z,0
2016-05-15T04:14:44.324Z,0
2016-05-15T04:15:44.138Z,0
2016-05-15T04:16:44.125Z,0
2016-05-15T04:17:44.269Z,0
2016-05-15T04:18:45.037Z,0
2016-05-15T04:19:43.962Z,0
2016-05-15T04:20:43.902Z,0
2016-05-15T04:21:44.202Z,0
2016-05-15T04:22:44.173Z,0
2016-05-15T04:23:44.159Z,0
2016-05-15T04:24:43.976Z,0
2016-05-15T04:25:44.118Z,0
2016-05-15T04:26:44.074Z,0
2016-05-15T04:27:43.920Z,0
2016-05-15T04:28:43.908Z,0
2016-05-15T04:29:43.895Z,0
2016-05-15T04:30:44.038Z,0
2016-05-15T04:31:44.009Z,0
2016-05-15T04:32:43.981Z,0
2016-05-15T04:33:43.984Z,0
2016-05-15T04:34:43.814Z,0
2016-05-15T04:35:43.786Z,0
2016-05-15T04:36:43.914Z,0
2016-05-15T04:37:43.900Z,0
2016-05-15T04:38:43.872Z,0
2016-05-15T04:39:43.703Z,0
2016-05-15T04:40:43.846Z,0
2016-05-15T04:41:43.677Z,0
2016-05-15T04:42:43.821Z,0
2016-05-15T04:43:43.635Z,0
2016-05-15T04:44:43.466Z,0
2016-05-15T04:45:43.593Z,0
2016-05-15T04:46:43.597Z,0
2016-05-15T04:47:43.552Z,0
2016-05-15T04:48:43.837Z,0
2016-05-15T04:49:43.980Z,0
2016-05-15T04:50:43.513Z,0
2016-05-15T04:51:43.641Z,0
2016-05-15T04:52:43.629Z,0
2016-05-15T04:53:43.600Z,0
2016-05-15T04:54:43.587Z,0
2016-05-15T04:55:43.590Z,0
2016-05-15T04:56:43.546Z,0
2016-05-15T04:57:43.532Z,0
2016-05-15T04:58:43.520Z,0
2016-05-15T04:59:43.334Z,0
2016-05-15T05:00:43.494Z,0
2016-05-15T05:01:43.465Z,4
2016-05-15T05:02:43.436Z,4
2016-05-15T05:03:43.284Z,0
2016-05-15T05:04:43.255Z,4
2016-05-15T05:05:43.397Z,4
2016-05-15T05:06:43.370Z,4
2016-05-15T05:07:43.356Z,8
2016-05-15T05:08:43.327Z,12
2016-05-15T05:09:43.159Z,12
2016-05-15T05:10:43.146Z,12
2016-05-15T05:11:43.289Z,16
2016-05-15T05:12:43.104Z,16
2016-05-15T05:13:43.091Z,20
2016-05-15T05:14:43.219Z,24
2016-05-15T05:15:43.205Z,28
2016-05-15T05:16:43.052Z,36
2016-05-15T05:17:42.852Z,36
2016-05-15T05:18:43.433Z,44
2016-05-15T05:19:43.185Z,52
2016-05-15T05:20:42.954Z,60
2016-05-15T05:21:42.957Z,72
2016-05-15T05:22:42.787Z,80
2016-05-15T05:23:43.071Z,88
2016-05-15T05:24:43.042Z,100
2016-05-15T05:25:42.874Z,112
2016-05-15T05:26:43.001Z,124
2016-05-15T05:27:42.987Z,140
2016-05-15T05:28:42.976Z,152
2016-05-15T05:29:42.790Z,168
2016-05-15T05:30:42.933Z,188
2016-05-15T05:31:42.920Z,204
2016-05-15T05:32:42.737Z,220
2016-05-15T05:33:42.895Z,236
2016-05-15T05:34:42.725Z,256
2016-05-15T05:35:42.854Z,272
2016-05-15T05:36:42.841Z,292
2016-05-15T05:37:42.796Z,312
2016-05-15T05:38:42.783Z,336
2016-05-15T05:39:42.770Z,356
2016-05-15T05:40:42.758Z,380
2016-05-15T05:41:42.572Z,400
2016-05-15T05:42:42.732Z,420
2016-05-15T05:43:42.531Z,444
2016-05-15T05:44:42.674Z,464
2016-05-15T05:45:42.505Z,484
2016-05-15T05:46:42.633Z,508
2016-05-15T05:47:42.480Z,528
2016-05-15T05:48:42.623Z,556
2016-05-15T05:49:42.594Z,572
2016-05-15T05:50:42.269Z,596
2016-05-15T05:51:42.552Z,620
2016-05-15T05:52:42.524Z,640
2016-05-15T05:53:42.496Z,664
2016-05-15T05:54:42.498Z,688
2016-05-15T05:55:42.329Z,712
2016-05-15T05:56:42.457Z,736
2016-05-15T05:57:42.443Z,760
2016-05-15T05:58:42.415Z,780
2016-05-15T05:59:42.245Z,804
2016-05-15T06:00:42.234Z,832
2016-05-15T06:01:42.220Z,848
2016-05-15T06:02:42.192Z,868
2016-05-15T06:03:42.320Z,892
2016-05-15T06:04:42.337Z,912
2016-05-15T06:05:42.309Z,932
2016-05-15T06:06:42.281Z,944
2016-05-15T06:07:42.252Z,964
2016-05-15T06:08:41.927Z,988
2016-05-15T06:09:42.241Z,1000
2016-05-15T06:10:42.214Z,1024
2016-05-15T06:11:42.028Z,1044
2016-05-15T06:12:42.031Z,1060
2016-05-15T06:13:42.158Z,1076
2016-05-15T06:14:42.130Z,1088
2016-05-15T06:15:42.117Z,1104
2016-05-15T06:16:41.948Z,1124
2016-05-15T06:17:42.077Z,1136
2016-05-15T06:18:42.063Z,1148
2016-05-15T06:19:42.034Z,1160
2016-05-15T06:20:41.725Z,1172
2016-05-15T06:21:42.008Z,1192
2016-05-15T06:22:41.839Z,1204
2016-05-15T06:23:42.013Z,1220
2016-05-15T06:24:41.954Z,1236
2016-05-15T06:25:41.941Z,1256
2016-05-15T06:26:41.928Z,1268
2016-05-15T06:27:41.915Z,1276
2016-05-15T06:28:41.871Z,1288
2016-05-15T06:29:41.858Z,1300
2016-05-15T06:30:41.861Z,1320
2016-05-15T06:31:41.832Z,1332
2016-05-15T06:32:41.804Z,1348
2016-05-15T06:33:41.775Z,1364
2016-05-15T06:34:42.684Z,1380
2016-05-15T06:35:41.609Z,1392
2016-05-15T06:36:41.736Z,1404
2016-05-15T06:37:41.708Z,1416
2016-05-15T06:38:41.538Z,1428
2016-05-15T06:39:41.682Z,1444
2016-05-15T06:40:41.653Z,1468
2016-05-15T06:41:41.483Z,1488
2016-05-15T06:42:41.487Z,1508
2016-05-15T06:43:41.614Z,1536
2016-05-15T06:44:41.602Z,1552
2016-05-15T06:45:41.572Z,1572
2016-05-15T06:46:41.561Z,1580
2016-05-15T06:47:41.532Z,1580
2016-05-15T06:48:41.518Z,1584
2016-05-15T06:49:41.647Z,1604
2016-05-15T06:50:41.321Z,1616
2016-05-15T06:51:41.495Z,1636
2016-05-15T06:52:41.451Z,1656
2016-05-15T06:53:41.266Z,1656
2016-05-15T06:54:41.410Z,1668
2016-05-15T06:55:41.396Z,1680
2016-05-15T06:56:41.368Z,1696
2016-05-15T06:57:41.199Z,1708
2016-05-15T06:58:41.342Z,1728
2016-05-15T06:59:41.157Z,1744
2016-05-15T07:00:41.317Z,1748
2016-05-15T07:01:41.273Z,1768
2016-05-15T07:02:41.259Z,1784
2016-05-15T07:03:41.246Z,1796
2016-05-15T07:04:41.203Z,1812
2016-05-15T07:05:41.205Z,1836
2016-05-15T07:06:41.191Z,1840
2016-05-15T07:07:41.179Z,1860
2016-05-15T07:08:41.009Z,1872
2016-05-15T07:09:41.153Z,1892
2016-05-15T07:10:41.124Z,1912
2016-05-15T07:11:41.097Z,1936
2016-05-15T07:12:40.630Z,1944
2016-05-15T07:13:41.054Z,1952
2016-05-15T07:14:40.730Z,1976
2016-05-15T07:15:41.013Z,1992
2016-05-15T07:16:41.016Z,2024
2016-05-15T07:17:41.019Z,2032
2016-05-15T07:18:40.833Z,2028
2016-05-15T07:19:40.868Z,2056
2016-05-15T07:20:40.807Z,2068
2016-05-15T07:21:40.951Z,2084
2016-05-15T07:22:40.922Z,2096
2016-05-15T07:23:40.894Z,2116
2016-05-15T07:24:40.552Z,2120
2016-05-15T07:25:40.868Z,2120
2016-05-15T07:26:40.855Z,2144
2016-05-15T07:27:40.810Z,2148
2016-05-15T07:28:40.782Z,2160
2016-05-15T07:29:40.785Z,2168
2016-05-15T07:30:40.757Z,2180
2016-05-15T07:31:40.587Z,2192
2016-05-15T07:32:40.731Z,2204
2016-05-15T07:33:40.718Z,2232
2016-05-15T07:34:40.564Z,2256
2016-05-15T07:35:40.660Z,2272
2016-05-15T07:36:40.492Z,2284
2016-05-15T07:37:40.462Z,2296
2016-05-15T07:38:40.626Z,2320
2016-05-15T07:39:40.672Z,2336
2016-05-15T07:40:40.703Z,2348
2016-05-15T07:41:40.561Z,2368
2016-05-15T07:42:40.732Z,2400
2016-05-15T07:43:40.594Z,2432
2016-05-15T07:44:40.612Z,2440
2016-05-15T07:45:40.756Z,2456
2016-05-15T07:46:40.758Z,2472
2016-05-15T07:47:40.745Z,2504
2016-05-15T07:48:40.431Z,2532
2016-05-15T07:49:40.752Z,2504
2016-05-15T07:50:40.556Z,2556
2016-05-15T07:51:41.814Z,2576
2016-05-15T07:52:40.698Z,2552
2016-05-15T07:53:47.673Z,2600
2016-05-15T07:54:40.677Z,2608
2016-05-15T07:55:40.651Z,2612
2016-05-15T07:56:40.655Z,2604
2016-05-15T07:57:40.613Z,2636
2016-05-15T07:58:40.461Z,2644
2016-05-15T07:59:40.418Z,2648
2016-05-15T08:00:40.562Z,2620
2016-05-15T08:01:40.393Z,2656
2016-05-15T08:02:40.381Z,2740
2016-05-15T08:03:40.368Z,2664
2016-05-15T08:04:40.371Z,2524
2016-05-15T08:05:40.484Z,2820
2016-05-15T08:06:40.488Z,2748
2016-05-15T08:07:40.475Z,2848
2016-05-15T08:08:40.430Z,2960
2016-05-15T08:09:40.419Z,3068
2016-05-15T08:10:40.249Z,2896
2016-05-15T08:11:40.376Z,2892
2016-05-15T08:12:40.207Z,2996
2016-05-15T08:13:40.179Z,3048
2016-05-15T08:14:40.354Z,3148
2016-05-15T08:15:40.309Z,3152
2016-05-15T08:16:40.296Z,3356
2016-05-15T08:17:40.268Z,3184
2016-05-15T08:18:40.254Z,3304
2016-05-15T08:19:40.132Z,3308
2016-05-15T08:20:40.213Z,3328
2016-05-15T08:21:40.076Z,3272
2016-05-15T08:22:40.203Z,3572
2016-05-15T08:23:40.206Z,3564
2016-05-15T08:24:40.006Z,3936
2016-05-15T08:25:40.133Z,3996
2016-05-15T08:26:40.120Z,4124
2016-05-15T08:27:40.091Z,4212
2016-05-15T08:28:40.079Z,4828
2016-05-15T08:29:40.065Z,5152
2016-05-15T08:30:40.036Z,4952
2016-05-15T08:31:40.055Z,3760
2016-05-15T08:32:40.011Z,4540
2016-05-15T08:33:39.998Z,5040
2016-05-15T08:34:40.219Z,4444
2016-05-15T08:35:39.957Z,3176
2016-05-15T08:36:39.631Z,3448
2016-05-15T08:37:39.946Z,3844
2016-05-15T08:38:39.762Z,4392
2016-05-15T08:39:39.749Z,3976
2016-05-15T08:40:39.891Z,3376
2016-05-15T08:41:39.879Z,2888
2016-05-15T08:42:39.538Z,3192
2016-05-15T08:43:39.822Z,3972
2016-05-15T08:44:39.809Z,3932
2016-05-15T08:45:39.796Z,3960
2016-05-15T08:46:39.783Z,3980
2016-05-15T08:47:39.770Z,4068
2016-05-15T08:48:39.585Z,4488
2016-05-15T08:49:40.182Z,4360
2016-05-15T08:50:39.732Z,4124
2016-05-15T08:51:39.531Z,4632
2016-05-15T08:52:39.518Z,4504
2016-05-15T08:53:39.661Z,4648
2016-05-15T08:54:39.492Z,4972
2016-05-15T08:55:39.464Z,5488
2016-05-15T08:56:39.607Z,4500
2016-05-15T08:57:39.609Z,6296
2016-05-15T08:58:39.253Z,6128
2016-05-15T08:59:39.412Z,5040
2016-05-15T09:00:39.539Z,4352
2016-05-15T09:01:39.386Z,4656
2016-05-15T09:02:39.514Z,4052
2016-05-15T09:03:39.516Z,4972
2016-05-15T09:04:39.364Z,4452
2016-05-15T09:05:39.303Z,4316
2016-05-15T09:06:39.446Z,4648
2016-05-15T09:07:39.449Z,4644
2016-05-15T09:08:39.419Z,4340
2016-05-15T09:09:39.266Z,4820
2016-05-15T09:10:39.223Z,5864
2016-05-15T09:11:39.366Z,5504
2016-05-15T09:12:39.196Z,4720
2016-05-15T09:13:39.200Z,5232
2016-05-15T09:14:39.327Z,4592
2016-05-15T09:15:39.282Z,4204
2016-05-15T09:16:39.270Z,6292
2016-05-15T09:17:39.274Z,7312
2016-05-15T09:18:39.119Z,7756
2016-05-15T09:19:39.403Z,7088
2016-05-15T09:20:39.062Z,8024
2016-05-15T09:21:39.033Z,8424
2016-05-15T09:22:39.037Z,7776
2016-05-15T09:23:38.992Z,9424
2016-05-15T09:24:39.151Z,8772
2016-05-15T09:25:39.138Z,6740
2016-05-15T09:26:38.812Z,5296
2016-05-15T09:27:39.081Z,5036
2016-05-15T09:28:38.928Z,5088
2016-05-15T09:29:38.914Z,4512
2016-05-15T09:30:39.058Z,5004
2016-05-15T09:31:38.717Z,4968
2016-05-15T09:32:38.859Z,4840
2016-05-15T09:33:39.003Z,4796
2016-05-15T09:34:39.115Z,4836
2016-05-15T09:35:38.805Z,4932
2016-05-15T09:36:38.949Z,4820
2016-05-15T09:37:38.811Z,5392
2016-05-15T09:38:38.923Z,4180
2016-05-15T09:39:38.910Z,5412
2016-05-15T09:40:38.881Z,5612
2016-05-15T09:41:38.869Z,5500
2016-05-15T09:42:38.871Z,5636
2016-05-15T09:43:38.858Z,5676
2016-05-15T09:44:38.829Z,5480
2016-05-15T09:45:38.833Z,5876
2016-05-15T09:46:38.788Z,5708
2016-05-15T09:47:38.775Z,5912
2016-05-15T09:48:38.762Z,6176
2016-05-15T09:49:38.859Z,8820
2016-05-15T09:50:38.565Z,9252
2016-05-15T09:51:38.724Z,9008
2016-05-15T09:52:38.429Z,7660
2016-05-15T09:53:38.682Z,6068
2016-05-15T09:54:38.653Z,6312
2016-05-15T09:55:38.656Z,6484
2016-05-15T09:56:38.315Z,6464
2016-05-15T09:57:38.630Z,6576
2016-05-15T09:58:38.446Z,6480
2016-05-15T09:59:38.432Z,7952
2016-05-15T10:00:38.420Z,6708
2016-05-15T10:01:38.547Z,6480
2016-05-15T10:02:38.550Z,7336
2016-05-15T10:03:38.522Z,6288
2016-05-15T10:04:38.524Z,7496
2016-05-15T10:05:38.339Z,8544
2016-05-15T10:06:38.170Z,6356
2016-05-15T10:07:38.470Z,8004
2016-05-15T10:08:38.456Z,8000
2016-05-15T10:09:38.443Z,8752
2016-05-15T10:10:38.446Z,7292
2016-05-15T10:11:38.419Z,7988
2016-05-15T10:12:38.092Z,6484
2016-05-15T10:13:38.219Z,8208
2016-05-15T10:14:38.223Z,8248
2016-05-15T10:15:38.194Z,8736
2016-05-15T10:16:38.338Z,8984
2016-05-15T10:17:38.168Z,9900
2016-05-15T10:18:38.156Z,10732
2016-05-15T10:19:38.658Z,12376
2016-05-15T10:20:38.271Z,13292
2016-05-15T10:21:38.101Z,14812
2016-05-15T10:22:38.259Z,13264
2016-05-15T10:23:38.216Z,17568
2016-05-15T10:24:37.890Z,16152
2016-05-15T10:25:38.206Z,13284
2016-05-15T10:26:38.192Z,13760
2016-05-15T10:27:38.179Z,14856
2016-05-15T10:28:38.182Z,14016
2016-05-15T10:29:38.154Z,16700
2016-05-15T10:30:38.125Z,16636
2016-05-15T10:31:38.268Z,13448
2016-05-15T10:32:38.100Z,12648
2016-05-15T10:33:37.915Z,13296
2016-05-15T10:34:37.933Z,13272
2016-05-15T10:35:37.903Z,12712
2016-05-15T10:36:38.032Z,13980
2016-05-15T10:37:38.035Z,13860
2016-05-15T10:38:37.866Z,14708
2016-05-15T10:39:37.993Z,14208
2016-05-15T10:40:37.997Z,13976
2016-05-15T10:41:37.827Z,14144
2016-05-15T10:42:37.955Z,15500
2016-05-15T10:43:37.957Z,15488
2016-05-15T10:44:37.944Z,14416
2016-05-15T10:45:37.931Z,13736
2016-05-15T10:46:37.903Z,13776
2016-05-15T10:47:37.905Z,14160
2016-05-15T10:48:37.736Z,14320
2016-05-15T10:49:37.895Z,15196
2016-05-15T10:50:37.867Z,16268
2016-05-15T10:51:37.744Z,17920
2016-05-15T10:52:37.824Z,18016
2016-05-15T10:53:37.812Z,19424
2016-05-15T10:54:37.814Z,18912
2016-05-15T10:55:37.787Z,17760
2016-05-15T10:56:37.773Z,18208
2016-05-15T10:57:37.760Z,16792
2016-05-15T10:58:37.606Z,15280
2016-05-15T10:59:37.735Z,13516
2016-05-15T11:00:37.737Z,12808
2016-05-15T11:01:37.393Z,13168
2016-05-15T11:02:37.695Z,13152
2016-05-15T11:03:37.684Z,14448
2016-05-15T11:04:37.653Z,17304
2016-05-15T11:05:37.689Z,20480
2016-05-15T11:06:37.644Z,17552
2016-05-15T11:07:37.647Z,15832
2016-05-15T11:08:37.319Z,15884
2016-05-15T11:09:37.446Z,17348
2016-05-15T11:10:37.606Z,17920
2016-05-15T11:11:37.420Z,19360
2016-05-15T11:12:37.564Z,23296
2016-05-15T11:13:37.550Z,24896
2016-05-15T11:14:37.538Z,26272
2016-05-15T11:15:37.524Z,59520
2016-05-15T11:16:37.512Z,57248
2016-05-15T11:17:37.358Z,105120
2016-05-15T11:18:37.486Z,19328
2016-05-15T11:19:37.504Z,18816
2016-05-15T11:20:37.460Z,80832
2016-05-15T11:21:37.463Z,33792
2016-05-15T11:22:37.309Z,61728
2016-05-15T11:23:37.452Z,18144
2016-05-15T11:24:37.424Z,22976
2016-05-15T11:25:37.426Z,40992
2016-05-15T11:26:37.413Z,36832
2016-05-15T11:27:37.401Z,29344
2016-05-15T11:28:37.231Z,105472
2016-05-15T11:29:37.218Z,41600
2016-05-15T11:30:37.378Z,39040
2016-05-15T11:31:37.349Z,105216
2016-05-15T11:32:37.054Z,77504
2016-05-15T11:33:37.370Z,50624
2016-05-15T11:34:37.357Z,18656
2016-05-15T11:35:37.032Z,16736
2016-05-15T11:36:37.019Z,15788
2016-05-15T11:37:37.303Z,14672
2016-05-15T11:38:37.289Z,16236
2016-05-15T11:39:37.292Z,62496
2016-05-15T11:40:37.155Z,45632
2016-05-15T11:41:37.283Z,90464
2016-05-15T11:42:37.472Z,21408
2016-05-15T11:43:37.100Z,16952
2016-05-15T11:44:37.258Z,20224
2016-05-15T11:45:37.247Z,15400
2016-05-15T11:46:37.233Z,15052
2016-05-15T11:47:37.080Z,18816
2016-05-15T11:48:37.222Z,18528
2016-05-15T11:49:37.054Z,21376
2016-05-15T11:50:37.181Z,25952
2016-05-15T11:51:37.200Z,26976
2016-05-15T11:52:37.015Z,27904
2016-05-15T11:53:37.174Z,26848
2016-05-15T11:54:37.160Z,28032
2016-05-15T11:55:37.163Z,27424
2016-05-15T11:56:37.353Z,22944
2016-05-15T11:57:37.138Z,22912
2016-05-15T11:58:37.141Z,29568
2016-05-15T11:59:37.112Z,21856
2016-05-15T12:00:37.129Z,21600
2016-05-15T12:01:37.101Z,21152
2016-05-15T12:02:37.104Z,20000
2016-05-15T12:03:36.779Z,19392
2016-05-15T12:04:37.345Z,19296
2016-05-15T12:05:37.081Z,20704
2016-05-15T12:06:37.068Z,23104
2016-05-15T12:07:36.898Z,30688
2016-05-15T12:08:37.042Z,24384
2016-05-15T12:09:37.045Z,25728
2016-05-15T12:10:37.032Z,35200
2016-05-15T12:11:37.019Z,33248
2016-05-15T12:12:37.022Z,24288
2016-05-15T12:13:36.994Z,25184
2016-05-15T12:14:36.700Z,23488
2016-05-15T12:15:36.999Z,23168
2016-05-15T12:16:36.986Z,33600
2016-05-15T12:17:36.988Z,25792
2016-05-15T12:18:36.975Z,23136
2016-05-15T12:19:37.149Z,23008
2016-05-15T12:20:36.949Z,22784
2016-05-15T12:21:36.828Z,26208
2016-05-15T12:22:36.939Z,21440
2016-05-15T12:23:36.942Z,33728
2016-05-15T12:24:36.944Z,22944
2016-05-15T12:25:36.916Z,20704
2016-05-15T12:26:36.903Z,18112
2016-05-15T12:27:36.922Z,17508
2016-05-15T12:28:36.893Z,18048
2016-05-15T12:29:36.880Z,18144
2016-05-15T12:30:36.726Z,101760
2016-05-15T12:31:36.870Z,108320
2016-05-15T12:32:36.716Z,80192
2016-05-15T12:33:36.844Z,97344
2016-05-15T12:34:36.706Z,63552
2016-05-15T12:35:36.834Z,103712
2016-05-15T12:36:36.836Z,103328
2016-05-15T12:37:36.839Z,96352
2016-05-15T12:38:36.811Z,101792
2016-05-15T12:39:36.642Z,61344
2016-05-15T12:40:36.801Z,76832
2016-05-15T12:41:36.803Z,105600
2016-05-15T12:42:36.650Z,105600
2016-05-15T12:43:36.777Z,107616
2016-05-15T12:44:36.795Z,103488
2016-05-15T12:45:36.766Z,99104
2016-05-15T12:46:36.629Z,105728
2016-05-15T12:47:36.772Z,103360
2016-05-15T12:48:36.619Z,97984
2016-05-15T12:49:36.466Z,65408
2016-05-15T12:50:36.749Z,101952
2016-05-15T12:51:36.767Z,105856
2016-05-15T12:52:36.598Z,105344
2016-05-15T12:53:36.444Z,56128
2016-05-15T12:54:36.744Z,33184
2016-05-15T12:55:36.763Z,90336
2016-05-15T12:56:36.609Z,112352
2016-05-15T12:57:36.737Z,101440
2016-05-15T12:58:36.615Z,106880
2016-05-15T12:59:36.758Z,110176
2016-05-15T13:00:36.432Z,109376
2016-05-15T13:01:36.591Z,107104
2016-05-15T13:02:36.750Z,26784
2016-05-15T13:03:36.596Z,34432
2016-05-15T13:04:36.958Z,38624
2016-05-15T13:05:36.587Z,109920
2016-05-15T13:06:36.573Z,103456
2016-05-15T13:07:36.748Z,107872
2016-05-15T13:08:36.734Z,106656
2016-05-15T13:09:36.737Z,105568
2016-05-15T13:10:36.739Z,105920
2016-05-15T13:11:36.742Z,102336
2016-05-15T13:12:36.574Z,66752
2016-05-15T13:13:36.748Z,62944
2016-05-15T13:14:36.736Z,19264
2016-05-15T13:15:36.738Z,20704
2016-05-15T13:16:36.725Z,47040
2016-05-15T13:17:36.728Z,25632
2016-05-15T13:18:36.731Z,24896
2016-05-15T13:19:36.749Z,23488
2016-05-15T13:20:36.564Z,110528
2016-05-15T13:21:36.410Z,113376
2016-05-15T13:22:36.725Z,115456
2016-05-15T13:23:36.760Z,116000
2016-05-15T13:24:36.730Z,111104
2016-05-15T13:25:36.719Z,106240
2016-05-15T13:26:36.705Z,102592
2016-05-15T13:27:36.723Z,103840
2016-05-15T13:28:36.554Z,107648
2016-05-15T13:29:36.541Z,81120
2016-05-15T13:30:36.715Z,108736
2016-05-15T13:31:36.704Z,47136
2016-05-15T13:32:36.706Z,92544
2016-05-15T13:33:36.709Z,101344
2016-05-15T13:34:36.742Z,105984
2016-05-15T13:35:36.542Z,102976
2016-05-15T13:36:36.685Z,103872
2016-05-15T13:37:36.687Z,105280
2016-05-15T13:38:36.706Z,104704
2016-05-15T13:39:36.709Z,103744
2016-05-15T13:40:36.696Z,102944
2016-05-15T13:41:36.698Z,102784
2016-05-15T13:42:36.545Z,104992
2016-05-15T13:43:36.703Z,100448